Time;durP1;ratioP1;P1;durP2;ratioP2;P2;SDS_P1;SDS_P2;PMS_P1;PMS_P2;Temp;Humidity;BMP_temperature;BMP_pressure;BME280_temperature;BME280_humidity;BME280_pressure;Samples;Min_cycle;Max_cycle;Signal;HPM_P1;HPM_P2
2022/12/28 00:01:27;;;;;;;;;5.67;5.67;;;;;10.31;100.00;101361.38;6228308;22;45345;-86
2022/12/28 00:03:53;;;;;;;;;7.33;7.00;;;;;10.21;100.00;101346.91;6228143;22;45227;-87
2022/12/28 00:06:20;;;;;;;;;4.00;2.00;;;;;10.25;100.00;101350.56;6231200;22;44900;-86
2022/12/28 00:08:46;;;;;;;;;7.33;7.00;;;;;10.29;100.00;101350.66;6255901;22;45275;-86
2022/12/28 00:11:16;;;;;;;;;2.33;1.67;;;;;10.24;100.00;101340.78;6227118;22;45199;-86
2022/12/28 00:13:44;;;;;;;;;4.33;3.33;;;;;10.26;100.00;101344.38;6227491;22;45268;-86
2022/12/28 00:16:17;;;;;;;;;4.00;4.00;;;;;10.30;100.00;101349.84;6256219;22;45290;-87
2022/12/28 00:18:43;;;;;;;;;4.00;4.00;;;;;10.27;100.00;101340.88;6229192;22;46899;-87
2022/12/28 00:21:08;;;;;;;;;4.67;4.67;;;;;10.22;100.00;101332.78;6229842;22;45400;-87
2022/12/28 00:23:34;;;;;;;;;6.67;5.33;;;;;10.30;100.00;101340.97;6257451;22;45312;-86
2022/12/28 00:26:12;;;;;;;;;5.00;5.00;;;;;10.27;100.00;101319.59;6230920;22;45307;-86
2022/12/28 00:28:38;;;;;;;;;8.00;3.00;;;;;10.34;100.00;101318.91;6230186;22;47054;-86
2022/12/28 00:31:04;;;;;;;;;5.00;4.50;;;;;10.35;100.00;101320.72;6229581;22;45299;-86
2022/12/28 00:33:31;;;;;;;;;5.33;4.67;;;;;10.40;100.00;101316.38;6229954;22;44720;-86
2022/12/28 00:35:58;;;;;;;;;8.00;4.00;;;;;10.40;100.00;101305.75;6208137;22;45450;-86
2022/12/28 00:38:24;;;;;;;;;4.00;4.00;;;;;10.25;100.00;101278.78;6231423;22;47181;-86
2022/12/28 00:40:50;;;;;;;;;5.00;5.00;;;;;10.35;100.00;101288.81;6258357;22;44804;-86
2022/12/28 00:43:16;;;;;;;;;5.00;5.00;;;;;10.33;100.00;101287.88;6258125;22;45355;-86
2022/12/28 00:45:46;;;;;;;;;3.75;3.75;;;;;10.43;100.00;101287.22;6255898;22;45216;-86
2022/12/28 00:48:12;;;;;;;;;7.00;3.33;;;;;10.42;100.00;101282.75;6258772;22;46065;-86
2022/12/28 00:50:38;;;;;;;;;5.67;4.00;;;;;10.45;100.00;101287.28;6233881;22;44951;-86
2022/12/28 00:53:04;;;;;;;;;3.67;3.67;;;;;10.45;100.00;101284.63;6231146;22;45335;-86
2022/12/28 00:55:31;;;;;;;;;7.33;6.00;;;;;10.43;100.00;101278.38;6260600;22;45183;-87
2022/12/28 00:58:00;;;;;;;;;3.00;3.00;;;;;10.47;100.00;101281.13;6258526;22;45574;-86
2022/12/28 01:00:26;;;;;;;;;5.67;4.00;;;;;10.45;100.00;101279.28;6231278;22;45426;-87
2022/12/28 01:02:52;;;;;;;;;4.67;4.67;;;;;10.45;100.00;101284.63;6231792;22;45400;-87
2022/12/28 01:08:39;;;;;;;;;3.00;3.00;;;;;10.52;100.00;101283.88;6257244;22;45923;-87
2022/12/28 01:11:10;;;;;;;;;8.67;5.00;;;;;10.54;100.00;101277.75;6230758;22;45283;-87
2022/12/28 01:13:37;;;;;;;;;3.00;3.00;;;;;10.51;100.00;101271.47;6235162;22;44697;-87
2022/12/28 01:16:14;;;;;;;;;6.00;3.67;;;;;10.52;100.00;101273.25;6232319;22;44840;-87
2022/12/28 01:18:41;;;;;;;;;3.67;3.67;;;;;10.47;100.00;101265.16;6230851;22;46963;-87
2022/12/28 01:21:18;;;;;;;;;4.00;4.00;;;;;10.44;100.00;101262.41;6229402;22;45281;-87
2022/12/28 01:23:46;;;;;;;;;4.67;4.67;;;;;10.47;100.00;101270.47;6230920;22;45631;-87
2022/12/28 01:26:11;;;;;;;;;3.00;3.00;;;;;10.41;100.00;101263.25;6258479;22;45395;-87
2022/12/28 01:28:37;;;;;;;;;5.33;4.33;;;;;10.43;100.00;101251.78;6262306;22;45091;-87
2022/12/28 01:31:05;;;;;;;;;7.00;4.67;;;;;10.45;100.00;101256.25;6232997;22;45882;-86
2022/12/28 01:33:32;;;;;;;;;3.33;3.33;;;;;10.44;100.00;101249.13;6258850;22;45275;-86
2022/12/28 01:35:57;;;;;;;;;5.33;4.33;;;;;10.52;100.00;101250.22;6233608;22;45263;-87
2022/12/28 01:38:23;;;;;;;;;3.67;3.00;;;;;10.54;100.00;101259.13;6231742;22;46465;-87
2022/12/28 01:40:48;;;;;;;;;3.33;3.33;;;;;10.54;100.00;101251.16;6259325;22;45448;-86
2022/12/28 01:43:14;;;;;;;;;5.00;4.00;;;;;10.54;100.00;101248.50;6230491;22;45338;-86
2022/12/28 01:45:47;;;;;;;;;4.33;4.33;;;;;10.61;100.00;101257.50;6246481;22;45311;-86
2022/12/28 01:48:21;;;;;;;;;8.00;5.00;;;;;10.60;100.00;101255.69;6230932;22;45336;-87
2022/12/28 01:50:48;;;;;;;;;3.67;3.67;;;;;10.58;100.00;101255.69;6231531;22;45392;-87
2022/12/28 01:53:16;;;;;;;;;5.33;5.33;;;;;10.59;100.00;101252.13;6228311;22;45268;-86
2022/12/28 01:55:42;;;;;;;;;6.33;4.00;;;;;10.60;100.00;101251.28;6228463;22;45292;-86
2022/12/28 01:58:14;;;;;;;;;3.33;3.33;;;;;10.57;100.00;101245.00;6229321;22;47534;-87
2022/12/28 02:00:40;;;;;;;;;5.00;3.67;;;;;10.63;100.00;101244.25;6257551;22;45199;-86
2022/12/28 02:03:18;;;;;;;;;4.00;2.67;;;;;10.68;100.00;101246.09;6230734;22;45185;-86
2022/12/28 02:05:49;;;;;;;;;4.00;4.00;;;;;10.70;100.00;101240.84;6231979;22;45277;-87
2022/12/28 02:08:22;;;;;;;;;5.00;3.67;;;;;10.71;100.00;101239.97;6228412;22;48132;-86
2022/12/28 02:10:50;;;;;;;;;2.00;2.00;;;;;10.69;100.00;101234.63;6227392;22;45325;-86
2022/12/28 02:13:18;;;;;;;;;5.00;4.00;;;;;10.74;100.00;101237.38;6227858;22;45228;-86
2022/12/28 02:15:45;;;;;;;;;6.00;3.33;;;;;10.71;100.00;101221.38;6227833;22;45435;-86
2022/12/28 02:18:12;;;;;;;;;4.33;3.00;;;;;10.77;100.00;101237.44;6255960;22;45365;-87
2022/12/28 02:20:56;;;;;;;;;4.00;3.33;;;;;10.77;100.00;101230.34;6229891;22;45195;-87
2022/12/28 02:23:55;;;;;;;;;4.00;3.00;;;;;10.78;100.00;101224.16;6252430;22;45325;-87
2022/12/28 02:26:51;;;;;;;;;5.00;3.00;;;;;10.77;100.00;101221.50;6256074;22;44797;-87
2022/12/28 02:29:52;;;;;;;;;5.00;4.00;;;;;10.74;100.00;101221.41;6227902;22;46792;-85
2022/12/28 02:32:36;;;;;;;;;4.00;4.00;;;;;10.74;100.00;101221.41;6231946;22;45196;-86
2022/12/28 02:35:32;;;;;;;;;9.00;3.00;;;;;10.74;100.00;101206.34;6228908;22;45339;-85
2022/12/28 02:38:22;;;;;;;;;3.00;3.00;;;;;10.79;100.00;101214.44;6263957;22;45315;-86
2022/12/28 02:40:54;;;;;;;;;5.00;5.00;;;;;10.74;100.00;101200.13;6235947;22;45082;-86
2022/12/28 02:43:20;;;;;;;;;6.67;4.67;;;;;10.71;100.00;101194.75;6254283;22;45332;-86
2022/12/28 02:51:55;;;;;;;;;3.00;3.00;;;;;10.83;100.00;101197.66;6256192;22;45740;-86
2022/12/28 02:57:36;;;;;;;;;6.33;4.00;;;;;10.89;100.00;101184.50;6256581;22;45376;-86
2022/12/28 03:00:01;;;;;;;;;5.00;4.00;;;;;10.93;100.00;101190.78;6229705;22;45351;-86
2022/12/28 03:02:49;;;;;;;;;4.00;4.00;;;;;10.94;100.00;101181.91;6227157;22;46839;-86
2022/12/28 03:08:13;;;;;;;;;3.75;2.75;;;;;10.93;100.00;101183.69;6256766;22;45421;-87
2022/12/28 03:08:18;;;;;;;;;4.00;4.00;;;;;10.87;100.00;101170.25;6257590;22;45196;-85
2022/12/28 03:10:59;;;;;;;;;5.67;4.00;;;;;10.91;100.00;101177.44;6228552;22;45526;-85
2022/12/28 03:13:43;;;;;;;;;3.67;3.67;;;;;10.94;100.00;101172.16;6258009;22;45274;-86
2022/12/28 03:16:21;;;;;;;;;4.67;3.33;;;;;10.89;100.00;101163.19;6228722;22;45323;-86
2022/12/28 03:32:55;;;;;;;;;8.67;7.33;;;;;10.94;100.00;101156.19;6256674;22;45260;-85
2022/12/28 03:35:30;;;;;;;;;4.67;4.67;;;;;10.93;100.00;101143.75;6228377;22;46638;-86
2022/12/28 03:38:01;;;;;;;;;5.00;4.00;;;;;10.95;100.00;101141.13;6227336;22;45679;-87
2022/12/28 03:40:43;;;;;;;;;6.00;4.33;;;;;10.90;100.00;101132.16;6255861;22;45671;-86
2022/12/28 03:43:38;;;;;;;;;5.67;5.67;;;;;10.87;100.00;101130.34;6256513;22;45476;-87
2022/12/28 03:46:10;;;;;;;;;5.00;4.00;;;;;10.96;100.00;101143.81;6227591;22;46892;-86
2022/12/28 03:48:36;;;;;;;;;5.33;4.33;;;;;10.98;100.00;101135.84;6227786;22;45401;-86
2022/12/28 03:51:03;;;;;;;;;9.00;5.00;;;;;10.98;100.00;101131.41;6230860;22;44773;-86
2022/12/28 03:53:41;;;;;;;;;8.00;6.33;;;;;10.96;100.00;101141.13;6231094;22;44853;-86
2022/12/28 03:56:09;;;;;;;;;5.00;5.00;;;;;10.93;100.00;101130.47;6255921;22;45383;-86
2022/12/28 03:58:54;;;;;;;;;7.67;5.00;;;;;10.91;100.00;101129.53;6253786;22;45413;-86
2022/12/28 04:01:20;;;;;;;;;7.00;3.33;;;;;10.87;100.00;101122.34;6228780;22;45320;-86
2022/12/28 04:03:46;;;;;;;;;7.33;5.67;;;;;10.79;100.00;101102.69;6255954;22;45273;-87
2022/12/28 04:06:16;;;;;;;;;6.33;5.00;;;;;10.80;100.00;101104.47;6230326;22;46621;-86
2022/12/28 04:08:43;;;;;;;;;7.00;7.00;;;;;10.97;100.00;101119.00;6228489;22;45351;-86
2022/12/28 04:11:09;;;;;;;;;5.67;5.33;;;;;10.93;100.00;101122.47;6229349;22;45134;-86
2022/12/28 04:13:35;;;;;;;;;7.33;7.00;;;;;10.94;100.00;101118.94;6230126;22;45439;-86
2022/12/28 04:16:03;;;;;;;;;5.33;5.00;;;;;10.91;100.00;101102.03;6227628;22;47477;-86
2022/12/28 04:18:31;;;;;;;;;4.33;4.33;;;;;11.01;100.00;101120.84;6228099;22;45275;-86
2022/12/28 04:20:57;;;;;;;;;4.33;3.33;;;;;11.05;100.00;101102.25;6255870;22;45294;-86
2022/12/28 04:23:22;;;;;;;;;4.00;4.00;;;;;10.95;100.00;101082.59;6230157;22;45312;-86
2022/12/28 04:26:06;;;;;;;;;6.33;6.33;;;;;11.09;100.00;101098.78;6229109;22;46806;-86
2022/12/28 04:29:21;;;;;;;;;7.00;4.67;;;;;11.06;100.00;101102.28;6257636;22;45323;-86
2022/12/28 04:31:46;;;;;;;;;8.00;5.00;;;;;11.04;100.00;101097.81;6231104;22;45323;-86
2022/12/28 04:34:12;;;;;;;;;4.00;3.00;;;;;10.98;100.00;101083.50;6231396;22;44850;-86
2022/12/28 04:36:38;;;;;;;;;5.00;3.00;;;;;10.91;100.00;101081.63;6253542;22;45295;-86
2022/12/28 04:39:05;;;;;;;;;4.67;4.33;;;;;10.96;100.00;101079.94;6228147;22;44674;-86
2022/12/28 04:41:30;;;;;;;;;4.00;4.00;;;;;10.98;100.00;101079.97;6230258;22;45336;-86
2022/12/28 04:43:56;;;;;;;;;9.00;5.67;;;;;10.99;100.00;101085.31;6228089;22;45343;-86
2022/12/28 04:46:28;;;;;;;;;3.00;3.00;;;;;10.98;100.00;101080.84;6249589;22;45463;-85
2022/12/28 04:48:54;;;;;;;;;8.00;6.33;;;;;10.99;100.00;101080.00;6254518;22;45258;-86
2022/12/28 04:51:25;;;;;;;;;7.00;4.00;;;;;10.93;100.00;101074.56;6254831;22;44976;-86
2022/12/28 04:53:51;;;;;;;;;4.00;3.33;;;;;10.94;100.00;101087.00;6228402;22;45271;-86
2022/12/28 04:56:18;;;;;;;;;4.00;4.00;;;;;10.94;100.00;101081.66;6230711;22;47002;-86
2022/12/28 04:58:45;;;;;;;;;3.33;3.33;;;;;10.91;100.00;101063.00;6259248;22;45193;-86
2022/12/28 05:01:17;;;;;;;;;7.00;7.00;;;;;10.95;100.00;101070.19;6232318;22;44747;-86
2022/12/28 05:03:44;;;;;;;;;4.00;4.00;;;;;10.96;100.00;101069.28;6232737;22;45203;-86
2022/12/28 05:06:15;;;;;;;;;4.50;3.00;;;;;10.97;100.00;101065.78;6229973;22;46793;-86
2022/12/28 05:08:41;;;;;;;;;3.00;3.00;;;;;10.88;100.00;101051.41;6231204;22;45295;-86
2022/12/28 05:11:11;;;;;;;;;2.50;2.50;;;;;10.88;100.00;101048.75;6259183;22;45244;-86
2022/12/28 05:13:36;;;;;;;;;3.25;3.25;;;;;10.86;100.00;101042.50;6258585;22;45283;-86
2022/12/28 05:16:04;;;;;;;;;4.00;3.50;;;;;10.87;100.00;101045.19;6229067;22;46630;-86
2022/12/28 05:18:30;;;;;;;;;3.00;3.00;;;;;10.83;100.00;101048.66;6257738;22;45262;-86
2022/12/28 05:21:04;;;;;;;;;3.00;3.00;;;;;10.85;100.00;101052.25;6259592;22;45113;-86
2022/12/28 05:23:30;;;;;;;;;4.75;3.00;;;;;10.75;100.00;101040.53;6258671;22;45456;-86
2022/12/28 05:25:56;;;;;;;;;3.00;3.00;;;;;10.84;100.00;101053.09;6232150;22;45213;-86
2022/12/28 05:28:23;;;;;;;;;4.25;4.25;;;;;10.83;100.00;101046.00;6231874;22;45147;-86
2022/12/28 05:30:48;;;;;;;;;2.00;2.00;;;;;10.80;100.00;101043.28;6259294;22;45211;-86
2022/12/28 05:33:14;;;;;;;;;3.00;1.25;;;;;10.88;100.00;101054.94;6233408;22;45282;-86
2022/12/28 05:35:39;;;;;;;;;3.50;2.25;;;;;10.90;100.00;101045.22;6231309;22;47672;-86
2022/12/28 05:38:05;;;;;;;;;2.25;2.25;;;;;10.83;100.00;101038.03;6259445;22;45334;-86
2022/12/28 05:40:31;;;;;;;;;3.00;3.00;;;;;10.93;100.00;101045.31;6232583;22;45245;-86
2022/12/28 05:42:56;;;;;;;;;5.00;3.00;;;;;10.95;100.00;101034.69;6259155;22;45240;-86
2022/12/28 05:45:22;;;;;;;;;2.50;1.50;;;;;10.84;100.00;101021.19;6258926;22;45263;-86
2022/12/28 05:47:47;;;;;;;;;3.75;2.75;;;;;10.93;100.00;101042.63;6229060;22;45407;-86
2022/12/28 05:50:13;;;;;;;;;4.00;4.00;;;;;10.93;100.00;101031.09;6230646;22;45306;-86
2022/12/28 05:52:38;;;;;;;;;4.00;4.00;;;;;10.94;100.00;101041.75;6231137;22;45395;-86
2022/12/28 05:55:04;;;;;;;;;2.75;2.75;;;;;10.93;100.00;101037.31;6260723;22;48318;-86
2022/12/28 05:57:30;;;;;;;;;2.00;2.00;;;;;10.92;100.00;101029.31;6234782;22;45137;-86
2022/12/28 05:59:56;;;;;;;;;4.25;3.75;;;;;10.89;100.00;101024.84;6232593;22;45309;-86
2022/12/28 06:02:26;;;;;;;;;3.00;3.00;;;;;10.91;100.00;101017.78;6260428;22;45283;-86
2022/12/28 06:04:54;;;;;;;;;3.67;3.67;;;;;10.88;100.00;101025.69;6230921;22;46885;-86
2022/12/28 06:07:20;;;;;;;;;4.00;4.00;;;;;10.86;100.00;101015.88;6228959;22;45479;-87
2022/12/28 06:09:46;;;;;;;;;4.00;4.00;;;;;10.84;100.00;101018.53;6257028;22;45273;-86
2022/12/28 06:12:11;;;;;;;;;3.00;3.00;;;;;10.87;100.00;101007.94;6256455;22;45307;-86
2022/12/28 06:14:37;;;;;;;;;4.00;4.00;;;;;10.85;100.00;100998.16;6255569;22;45302;-86
2022/12/28 06:17:02;;;;;;;;;4.33;3.67;;;;;10.81;100.00;100987.44;6256861;22;44768;-86
2022/12/28 06:19:28;;;;;;;;;4.00;3.00;;;;;10.88;100.00;101003.50;6232084;22;45296;-86
2022/12/28 06:21:53;;;;;;;;;3.33;3.33;;;;;10.90;100.00;101009.75;6235426;22;45298;-86
2022/12/28 06:24:26;;;;;;;;;4.00;4.00;;;;;10.91;100.00;100999.16;6259933;22;45271;-86
2022/12/28 06:26:51;;;;;;;;;3.75;3.75;;;;;10.90;100.00;100989.34;6231138;22;45144;-86
2022/12/28 06:29:17;;;;;;;;;4.00;4.00;;;;;10.92;100.00;100984.94;6228250;22;45343;-86
2022/12/28 06:31:50;;;;;;;;;4.50;3.75;;;;;10.93;100.00;101000.06;6235662;22;45286;-86
2022/12/28 06:34:17;;;;;;;;;3.25;3.25;;;;;10.89;100.00;100974.28;6232041;22;45229;-86
2022/12/28 06:36:45;;;;;;;;;3.00;3.00;;;;;10.93;100.00;100981.44;6255635;22;44681;-86
2022/12/28 06:39:12;;;;;;;;;3.75;3.75;;;;;10.94;100.00;100969.00;6231634;22;45335;-86
2022/12/28 06:41:40;;;;;;;;;4.00;4.00;;;;;10.96;100.00;100972.59;6231650;22;45554;-87
2022/12/28 06:44:10;;;;;;;;;3.67;2.00;;;;;10.86;100.00;100954.69;6256885;22;47125;-86
2022/12/28 06:46:37;;;;;;;;;4.50;4.50;;;;;10.97;100.00;100969.97;6230265;22;45403;-86
2022/12/28 06:49:03;;;;;;;;;3.25;3.25;;;;;10.92;100.00;100958.34;6233069;22;45378;-86
2022/12/28 06:51:37;;;;;;;;;7.67;4.00;;;;;10.93;100.00;100962.81;6229581;22;45328;-87
2022/12/28 06:54:03;;;;;;;;;3.67;3.00;;;;;10.93;100.00;100962.81;6231343;22;46949;-86
2022/12/28 06:56:31;;;;;;;;;10.33;6.00;;;;;10.91;100.00;100947.69;6231694;22;45354;-86
2022/12/28 06:58:58;;;;;;;;;2.00;2.00;;;;;10.93;100.00;100953.94;6259065;22;45082;-86
2022/12/28 07:01:29;;;;;;;;;5.00;5.00;;;;;10.88;100.00;100943.19;6256442;22;45263;-86
2022/12/28 07:03:56;;;;;;;;;5.00;4.67;;;;;10.77;100.00;100926.19;6257110;22;46042;-86
2022/12/28 07:06:24;;;;;;;;;3.33;3.33;;;;;10.90;100.00;100949.44;6228939;22;45341;-86
2022/12/28 07:08:50;;;;;;;;;6.00;4.33;;;;;10.77;100.00;100926.19;6229093;22;45499;-84
2022/12/28 07:11:20;;;;;;;;;4.67;3.00;;;;;10.81;100.00;100930.69;6231843;22;45463;-86
2022/12/28 07:13:46;;;;;;;;;4.00;4.00;;;;;10.89;100.00;100939.69;6231462;22;45204;-86
2022/12/28 07:16:18;;;;;;;;;3.67;3.00;;;;;10.79;100.00;100922.66;6230328;22;45349;-86
2022/12/28 07:18:45;;;;;;;;;4.00;4.00;;;;;10.86;100.00;100923.66;6231719;22;45260;-86
2022/12/28 07:21:14;;;;;;;;;5.00;4.00;;;;;10.87;100.00;100928.13;6258337;22;45164;-86
2022/12/28 07:23:40;;;;;;;;;5.00;3.67;;;;;10.90;100.00;100925.50;6232653;22;47169;-86
2022/12/28 07:26:11;;;;;;;;;8.00;4.33;;;;;10.83;100.00;100918.31;6259915;22;45504;-86
2022/12/28 07:28:37;;;;;;;;;4.67;2.33;;;;;10.87;100.00;100911.28;6260388;22;45452;-86
2022/12/28 07:31:09;;;;;;;;;3.00;3.00;;;;;10.93;100.00;100920.22;6234152;22;45154;-86
2022/12/28 07:33:35;;;;;;;;;4.67;4.67;;;;;10.89;100.00;100907.75;6232746;22;47159;-86
2022/12/28 07:36:03;;;;;;;;;7.33;4.67;;;;;10.91;100.00;100921.97;6234133;22;45160;-86
2022/12/28 07:38:29;;;;;;;;;4.67;4.67;;;;;10.89;100.00;100906.88;6235809;22;44673;-87
2022/12/28 07:41:12;;;;;;;;;5.67;4.00;;;;;10.94;100.00;100908.69;6236517;22;45456;-86
2022/12/28 07:43:39;;;;;;;;;2.00;2.00;;;;;10.92;100.00;100907.78;6264297;22;44921;-85
2022/12/28 07:46:07;;;;;;;;;5.67;4.33;;;;;10.84;100.00;100889.91;6261900;22;45275;-86
2022/12/28 07:48:34;;;;;;;;;4.00;4.00;;;;;10.88;100.00;100905.94;6262206;22;45399;-86
2022/12/28 07:51:10;;;;;;;;;2.00;2.00;;;;;10.96;100.00;100906.97;6235515;22;45417;-87
2022/12/28 07:53:37;;;;;;;;;4.00;4.00;;;;;10.95;100.00;100906.97;6234789;22;47881;-87
2022/12/28 07:56:03;;;;;;;;;4.67;3.00;;;;;10.94;100.00;100898.06;6233239;22;45308;-86
2022/12/28 07:58:29;;;;;;;;;3.00;3.00;;;;;10.97;100.00;100895.47;6235340;22;45280;-86
2022/12/28 08:01:06;;;;;;;;;4.67;3.33;;;;;10.96;100.00;100885.66;6235906;22;45516;-86
2022/12/28 08:03:32;;;;;;;;;2.75;2.00;;;;;10.98;100.00;100883.91;6238418;22;47821;-86
2022/12/28 08:06:11;;;;;;;;;3.33;3.00;;;;;11.01;100.00;100889.31;6234954;22;45643;-86
2022/12/28 08:08:39;;;;;;;;;3.25;2.00;;;;;11.02;100.00;100899.06;6233192;22;44672;-86
2022/12/28 08:11:07;;;;;;;;;4.33;4.33;;;;;11.01;100.00;100885.75;6259946;22;44793;-86
2022/12/28 08:13:34;;;;;;;;;6.33;3.33;;;;;11.02;100.00;100883.09;6263007;22;45441;-85
2022/12/28 08:16:01;;;;;;;;;4.00;3.00;;;;;10.99;100.00;100872.44;6235880;22;45161;-87
2022/12/28 08:18:28;;;;;;;;;5.67;5.67;;;;;10.99;100.00;100872.44;6260256;22;45390;-85
2022/12/28 08:20:54;;;;;;;;;4.00;3.00;;;;;11.05;100.00;100870.69;6264416;22;44691;-86
2022/12/28 08:23:20;;;;;;;;;3.33;3.33;;;;;11.04;100.00;100867.16;6234732;22;47002;-85
2022/12/28 08:25:46;;;;;;;;;4.33;4.33;;;;;11.06;100.00;100867.19;6233431;22;44867;-86
2022/12/28 08:28:12;;;;;;;;;3.00;3.00;;;;;11.03;100.00;100857.41;6233921;22;45466;-86
2022/12/28 08:30:40;;;;;;;;;5.67;3.67;;;;;11.07;100.00;100858.31;6258621;22;45370;-85
2022/12/28 08:33:06;;;;;;;;;4.33;4.00;;;;;11.12;100.00;100868.16;6234911;22;46935;-84
2022/12/28 08:35:31;;;;;;;;;3.33;3.33;;;;;11.07;100.00;100853.00;6262805;22;45316;-84
2022/12/28 08:41:21;;;;;;;;;4.00;3.67;;;;;11.17;100.00;100870.91;6259871;22;44690;-84
2022/12/28 08:43:47;;;;;;;;;5.00;3.67;;;;;11.19;100.00;100869.16;6231966;22;46989;-83
2022/12/28 08:46:31;;;;;;;;;4.00;4.00;;;;;11.16;100.00;100861.13;6232491;22;44810;-83
2022/12/28 08:48:58;;;;;;;;;4.00;4.00;;;;;11.24;100.00;100869.22;6262264;22;45400;-85
2022/12/28 08:54:49;;;;;;;;;4.00;4.00;;;;;11.32;100.00;100876.41;6264242;22;45116;-85
2022/12/28 08:57:15;;;;;;;;;5.00;3.67;;;;;11.35;100.00;100863.16;6264708;22;45483;-84
2022/12/28 08:59:41;;;;;;;;;4.33;4.00;;;;;11.31;100.00;100848.03;6261133;22;45261;-85
2022/12/28 09:02:06;;;;;;;;;6.00;5.00;;;;;11.28;100.00;100828.44;6264109;22;45417;-85
2022/12/28 09:08:25;;;;;;;;;4.00;4.00;;;;;11.52;100.00;100843.81;6262247;22;45191;-85
2022/12/28 09:10:50;;;;;;;;;3.67;3.67;;;;;11.47;100.00;100833.09;6235304;22;45364;-84
2022/12/28 09:13:17;;;;;;;;;6.00;6.00;;;;;11.57;100.00;100835.03;6263436;22;44839;-85
2022/12/28 09:15:43;;;;;;;;;5.67;4.00;;;;;11.52;100.00;100815.41;6233884;22;46754;-86
2022/12/28 09:28:10;;;;;;;;;5.00;4.00;;;;;11.49;100.00;100782.50;5993983;23;45398;-84
2022/12/28 09:30:36;;;;;;;;;5.00;3.33;;;;;11.70;100.00;100822.72;5968440;23;45057;-86
2022/12/28 09:35:46;;;;;;;;;2.25;2.25;;;;;11.69;100.00;100802.25;5994078;23;45369;-86
2022/12/28 09:38:12;;;;;;;;;4.67;2.67;;;;;11.56;100.00;100785.28;5993875;23;45586;-83
2022/12/28 09:40:38;;;;;;;;;8.00;3.33;;;;;11.73;100.00;100813.84;5991859;23;45485;-83
2022/12/28 09:43:04;;;;;;;;;3.75;3.75;;;;;11.76;100.00;100808.56;5943929;23;45444;-84
2022/12/28 09:45:32;;;;;;;;;4.00;4.00;;;;;11.78;100.00;100810.38;5991862;23;45330;-85
2022/12/28 09:48:03;;;;;;;;;3.25;3.25;;;;;11.73;100.00;100787.22;5990789;23;45644;-84
2022/12/28 09:50:31;;;;;;;;;6.00;5.00;;;;;11.79;100.00;100798.81;5968570;23;44810;-86
2022/12/28 09:56:47;;;;;;;;;3.67;3.67;;;;;11.83;100.00;100805.06;5911501;24;45484;-85
2022/12/28 09:59:20;;;;;;;;;3.00;3.00;;;;;11.95;100.00;100823.00;5911937;24;46718;-83
2022/12/28 10:01:59;;;;;;;;;4.67;4.00;;;;;12.06;100.00;100809.75;5936825;24;44826;-85
2022/12/28 10:04:25;;;;;;;;;5.33;5.00;;;;;12.12;100.00;100804.47;5978399;23;45321;-86
2022/12/28 10:06:52;;;;;;;;;5.00;4.00;;;;;12.13;100.00;100801.84;5970888;23;45305;-85
2022/12/28 10:09:26;;;;;;;;;5.00;5.00;;;;;12.19;100.00;100793.00;5992312;23;45698;-85
2022/12/28 10:11:55;;;;;;;;;3.33;3.33;;;;;12.09;100.00;100776.03;5994045;23;44741;-86
2022/12/28 10:14:34;;;;;;;;;6.00;4.67;;;;;12.12;100.00;100764.50;5994303;23;45839;-85
2022/12/28 10:17:14;;;;;;;;;4.33;4.33;;;;;12.31;100.00;100801.09;6054314;23;44850;-86
2022/12/28 10:19:45;;;;;;;;;3.00;3.00;;;;;12.13;100.00;100771.63;6110851;23;46742;-83
2022/12/28 10:22:15;;;;;;;;;4.00;4.00;;;;;12.18;100.00;100770.78;6138483;23;44947;-86
2022/12/28 10:24:42;;;;;;;;;5.00;5.00;;;;;12.09;100.00;100740.50;6111953;23;44778;-87
2022/12/28 10:27:30;;;;;;;;;5.67;5.67;;;;;12.28;100.00;100777.09;6109126;23;44807;-84
2022/12/28 10:30:00;;;;;;;;;8.00;6.33;;;;;12.16;100.00;100761.00;6060697;23;46831;-84
2022/12/28 10:32:25;;;;;;;;;4.00;4.00;;;;;12.23;100.00;100785.94;6185273;22;45419;-83
2022/12/28 10:35:05;;;;;;;;;5.00;5.00;;;;;12.21;100.00;100780.56;6261640;22;45412;-85
2022/12/28 10:37:35;;;;;;;;;2.50;1.00;;;;;12.13;100.00;100767.19;6234477;22;45186;-85
2022/12/28 10:40:21;;;;;;;;;8.67;5.00;;;;;12.16;100.00;100771.66;6236155;22;46749;-85
2022/12/28 10:42:53;;;;;;;;;3.00;3.00;;;;;12.15;100.00;100754.75;6232896;22;45308;-86
2022/12/28 10:45:23;;;;;;;;;5.00;4.75;;;;;12.18;100.00;100770.78;6234735;22;44808;-85
2022/12/28 10:47:56;;;;;;;;;3.33;3.33;;;;;12.18;100.00;100760.13;6263015;22;45460;-87
2022/12/28 10:50:48;;;;;;;;;4.00;3.00;;;;;12.15;100.00;100760.09;6263122;22;46569;-85
2022/12/28 10:53:28;;;;;;;;;3.50;3.00;;;;;12.08;100.00;100742.28;6234554;22;45303;-84
2022/12/28 10:56:21;;;;;;;;;5.00;3.33;;;;;12.11;100.00;100747.59;6236475;22;45437;-85
2022/12/28 10:58:50;;;;;;;;;1.75;1.75;;;;;11.96;100.00;100726.19;6238141;22;44881;-84
2022/12/28 11:01:22;;;;;;;;;4.33;4.33;;;;;12.14;100.00;100736.97;6258284;22;46161;-85
2022/12/28 11:03:54;;;;;;;;;4.00;4.00;;;;;12.23;100.00;100732.59;6264439;22;44884;-86
2022/12/28 11:06:23;;;;;;;;;5.00;4.00;;;;;12.28;100.00;100725.50;6263224;22;45331;-88
2022/12/28 11:09:12;;;;;;;;;2.67;2.67;;;;;12.33;100.00;100718.44;6237896;22;45421;-85
2022/12/28 11:11:41;;;;;;;;;2.00;0.50;;;;;12.22;100.00;100675.72;6235119;22;46203;-85
2022/12/28 11:14:31;;;;;;;;;5.00;5.00;;;;;12.40;100.00;100691.81;6234808;22;44714;-86
2022/12/28 11:17:03;;;;;;;;;4.67;4.00;;;;;12.49;100.00;100680.31;6235604;22;45368;-86
2022/12/28 11:19:32;;;;;;;;;2.67;2.67;;;;;12.33;100.00;100633.09;6261080;22;45342;-85
2022/12/28 11:22:00;;;;;;;;;3.00;2.33;;;;;12.45;100.00;100673.19;6234713;22;46430;-86
2022/12/28 11:24:27;;;;;;;;;3.00;3.00;;;;;12.56;100.00;100666.13;6233193;22;45465;-85
2022/12/28 11:26:56;;;;;;;;;4.00;4.00;;;;;12.71;100.00;100667.06;6234576;22;45429;-88
2022/12/28 11:33:08;;;;;;;;;6.00;6.00;;;;;12.77;100.00;100656.44;6262611;22;45319;-86
2022/12/28 11:35:39;;;;;;;;;10.33;7.00;;;;;12.71;100.00;100648.41;6234642;22;45347;-85
2022/12/28 11:38:33;;;;;;;;;3.33;3.33;;;;;12.71;100.00;100635.06;6233688;22;45367;-86
2022/12/28 11:40:59;;;;;;;;;8.00;8.00;;;;;12.73;100.00;100623.50;6233938;22;45411;-86
2022/12/28 11:43:28;;;;;;;;;6.00;4.67;;;;;12.76;100.00;100626.16;6232347;22;46554;-86
2022/12/28 11:45:57;;;;;;;;;5.00;4.00;;;;;12.44;100.00;100591.34;6265850;22;45318;-86
2022/12/28 11:49:05;;;;;;;;;3.25;3.25;;;;;12.77;100.00;100629.75;6234704;22;45484;-86
2022/12/28 11:51:33;;;;;;;;;4.75;4.00;;;;;12.78;100.00;100628.84;6262523;22;45362;-87
2022/12/28 11:54:01;;;;;;;;;5.00;5.00;;;;;12.49;100.00;100589.63;6248914;22;45265;-85
2022/12/28 11:56:46;;;;;;;;;3.25;3.25;;;;;12.66;100.00;100624.34;6263595;22;44860;-86
2022/12/28 11:59:27;;;;;;;;;4.67;4.67;;;;;12.53;100.00;100607.41;6238072;22;44850;-86
2022/12/28 12:01:59;;;;;;;;;8.00;7.00;;;;;12.57;100.00;100617.22;6245896;22;44786;-86
2022/12/28 12:04:37;;;;;;;;;5.75;5.75;;;;;12.54;100.00;100595.88;6233885;22;45172;-84
2022/12/28 12:07:06;;;;;;;;;4.00;4.00;;;;;12.60;100.00;100601.22;6230944;22;45281;-86
2022/12/28 12:09:45;;;;;;;;;5.75;3.75;;;;;12.58;100.00;100589.66;6267730;22;45425;-87
2022/12/28 12:12:13;;;;;;;;;3.00;3.00;;;;;12.57;100.00;100582.53;6235575;22;44910;-85
2022/12/28 12:14:53;;;;;;;;;4.50;3.75;;;;;12.57;100.00;100584.31;6239928;22;47183;-86
2022/12/28 12:17:52;;;;;;;;;8.00;5.00;;;;;12.60;100.00;100587.88;6252678;22;45247;-86
2022/12/28 12:20:34;;;;;;;;;5.75;4.00;;;;;12.60;100.00;100577.22;6233950;22;44762;-87
2022/12/28 12:23:47;;;;;;;;;3.33;3.33;;;;;12.64;100.00;100571.88;6234644;22;44839;-88
2022/12/28 12:26:48;;;;;;;;;3.00;3.00;;;;;12.58;100.00;100579.00;6108825;23;46906;-87
2022/12/28 12:29:53;;;;;;;;;4.75;4.25;;;;;12.49;100.00;100560.28;6085210;23;44684;-87
2022/12/28 12:32:40;;;;;;;;;5.00;5.00;;;;;12.52;100.00;100567.38;6054405;23;44768;-88